sensor_id;sensor_type;location;lat;lon;timestamp;P1;durP1;ratioP1;P2;durP2;ratioP2
52744;SDS011;38637;49.984;20.426;2023-04-25T00:01:37;16.73;;;15.07;;
52744;SDS011;38637;49.984;20.426;2023-04-25T00:04:03;17.20;;;15.53;;
52744;SDS011;38637;49.984;20.426;2023-04-25T00:06:30;19.27;;;16.90;;
52744;SDS011;38637;49.984;20.426;2023-04-25T00:08:57;18.95;;;16.77;;
52744;SDS011;38637;49.984;20.426;2023-04-25T00:11:22;19.50;;;16.30;;
52744;SDS011;38637;49.984;20.426;2023-04-25T00:13:48;17.58;;;15.77;;
52744;SDS011;38637;49.984;20.426;2023-04-25T00:16:15;17.23;;;15.43;;
52744;SDS011;38637;49.984;20.426;2023-04-25T00:18:41;19.27;;;17.43;;
52744;SDS011;38637;49.984;20.426;2023-04-25T00:21:07;16.92;;;15.13;;
52744;SDS011;38637;49.984;20.426;2023-04-25T00:23:32;20.10;;;17.40;;
52744;SDS011;38637;49.984;20.426;2023-04-25T00:26:00;19.10;;;17.20;;
52744;SDS011;38637;49.984;20.426;2023-04-25T00:28:25;19.47;;;17.57;;
52744;SDS011;38637;49.984;20.426;2023-04-25T00:30:51;19.63;;;17.73;;
52744;SDS011;38637;49.984;20.426;2023-04-25T00:33:16;19.17;;;17.27;;
52744;SDS011;38637;49.984;20.426;2023-04-25T00:35:41;18.97;;;16.10;;
52744;SDS011;38637;49.984;20.426;2023-04-25T00:38:07;17.20;;;15.27;;
52744;SDS011;38637;49.984;20.426;2023-04-25T00:40:32;18.73;;;16.17;;
52744;SDS011;38637;49.984;20.426;2023-04-25T00:42:57;17.03;;;15.23;;
52744;SDS011;38637;49.984;20.426;2023-04-25T00:45:23;16.87;;;15.03;;
52744;SDS011;38637;49.984;20.426;2023-04-25T00:47:53;18.45;;;14.32;;
52744;SDS011;38637;49.984;20.426;2023-04-25T00:52:44;16.75;;;15.00;;
52744;SDS011;38637;49.984;20.426;2023-04-25T00:55:11;19.87;;;17.17;;
52744;SDS011;38637;49.984;20.426;2023-04-25T00:57:37;19.05;;;16.27;;
52744;SDS011;38637;49.984;20.426;2023-04-25T01:00:03;21.17;;;18.87;;
52744;SDS011;38637;49.984;20.426;2023-04-25T01:02:31;20.83;;;18.58;;
52744;SDS011;38637;49.984;20.426;2023-04-25T01:04:57;21.20;;;18.38;;
52744;SDS011;38637;49.984;20.426;2023-04-25T01:07:22;21.47;;;19.30;;
52744;SDS011;38637;49.984;20.426;2023-04-25T01:09:48;18.53;;;16.47;;
52744;SDS011;38637;49.984;20.426;2023-04-25T01:12:13;20.50;;;16.80;;
52744;SDS011;38637;49.984;20.426;2023-04-25T01:14:39;18.30;;;16.17;;
52744;SDS011;38637;49.984;20.426;2023-04-25T01:17:05;17.47;;;15.70;;
52744;SDS011;38637;49.984;20.426;2023-04-25T01:19:32;20.70;;;16.67;;
52744;SDS011;38637;49.984;20.426;2023-04-25T01:21:57;18.17;;;16.40;;
52744;SDS011;38637;49.984;20.426;2023-04-25T01:24:23;19.27;;;17.27;;
52744;SDS011;38637;49.984;20.426;2023-04-25T01:26:48;18.07;;;16.27;;
52744;SDS011;38637;49.984;20.426;2023-04-25T01:31:41;17.65;;;15.95;;
52744;SDS011;38637;49.984;20.426;2023-04-25T01:34:07;19.98;;;17.88;;
52744;SDS011;38637;49.984;20.426;2023-04-25T01:36:32;19.23;;;17.23;;
52744;SDS011;38637;49.984;20.426;2023-04-25T01:38:59;21.42;;;19.02;;
52744;SDS011;38637;49.984;20.426;2023-04-25T01:41:25;21.85;;;19.05;;
52744;SDS011;38637;49.984;20.426;2023-04-25T01:43:51;19.80;;;17.70;;
52744;SDS011;38637;49.984;20.426;2023-04-25T01:46:16;9.60;;;8.73;;
52744;SDS011;38637;49.984;20.426;2023-04-25T01:48:42;6.23;;;5.63;;
52744;SDS011;38637;49.984;20.426;2023-04-25T01:51:08;6.93;;;4.23;;
52744;SDS011;38637;49.984;20.426;2023-04-25T01:53:33;3.88;;;3.58;;
52744;SDS011;38637;49.984;20.426;2023-04-25T01:55:59;5.13;;;2.47;;
52744;SDS011;38637;49.984;20.426;2023-04-25T01:58:24;2.80;;;2.60;;
52744;SDS011;38637;49.984;20.426;2023-04-25T02:00:49;2.87;;;2.40;;
52744;SDS011;38637;49.984;20.426;2023-04-25T02:03:15;3.40;;;2.27;;
52744;SDS011;38637;49.984;20.426;2023-04-25T02:05:40;5.67;;;2.03;;
52744;SDS011;38637;49.984;20.426;2023-04-25T02:08:06;3.37;;;2.40;;
52744;SDS011;38637;49.984;20.426;2023-04-25T02:10:33;4.72;;;1.88;;
52744;SDS011;38637;49.984;20.426;2023-04-25T02:12:59;4.93;;;2.03;;
52744;SDS011;38637;49.984;20.426;2023-04-25T02:15:24;2.97;;;1.60;;
52744;SDS011;38637;49.984;20.426;2023-04-25T02:17:50;1.80;;;1.30;;
52744;SDS011;38637;49.984;20.426;2023-04-25T02:20:17;3.20;;;1.55;;
52744;SDS011;38637;49.984;20.426;2023-04-25T02:22:45;6.57;;;1.50;;
52744;SDS011;38637;49.984;20.426;2023-04-25T02:25:10;7.30;;;1.23;;
52744;SDS011;38637;49.984;20.426;2023-04-25T02:27:36;1.10;;;1.00;;
52744;SDS011;38637;49.984;20.426;2023-04-25T02:30:02;3.70;;;1.40;;
52744;SDS011;38637;49.984;20.426;2023-04-25T02:32:27;1.58;;;1.48;;
52744;SDS011;38637;49.984;20.426;2023-04-25T02:34:53;2.00;;;1.30;;
52744;SDS011;38637;49.984;20.426;2023-04-25T02:37:18;1.77;;;1.30;;
52744;SDS011;38637;49.984;20.426;2023-04-25T02:39:44;1.70;;;1.60;;
52744;SDS011;38637;49.984;20.426;2023-04-25T02:42:09;2.10;;;1.30;;
52744;SDS011;38637;49.984;20.426;2023-04-25T02:44:35;1.87;;;1.50;;
52744;SDS011;38637;49.984;20.426;2023-04-25T02:47:00;2.97;;;1.60;;
52744;SDS011;38637;49.984;20.426;2023-04-25T02:49:25;1.90;;;1.70;;
52744;SDS011;38637;49.984;20.426;2023-04-25T02:51:51;2.33;;;1.90;;
52744;SDS011;38637;49.984;20.426;2023-04-25T02:54:16;2.27;;;2.07;;
52744;SDS011;38637;49.984;20.426;2023-04-25T02:56:41;2.80;;;1.87;;
52744;SDS011;38637;49.984;20.426;2023-04-25T02:59:07;2.33;;;1.83;;
52744;SDS011;38637;49.984;20.426;2023-04-25T03:01:32;1.70;;;1.60;;
52744;SDS011;38637;49.984;20.426;2023-04-25T03:03:57;2.43;;;2.00;;
52744;SDS011;38637;49.984;20.426;2023-04-25T03:06:22;2.17;;;2.07;;
52744;SDS011;38637;49.984;20.426;2023-04-25T03:08:48;3.23;;;1.87;;
52744;SDS011;38637;49.984;20.426;2023-04-25T03:11:13;2.20;;;2.00;;
52744;SDS011;38637;49.984;20.426;2023-04-25T03:13:38;2.57;;;2.37;;
52744;SDS011;38637;49.984;20.426;2023-04-25T03:16:04;2.93;;;2.60;;
52744;SDS011;38637;49.984;20.426;2023-04-25T03:18:29;3.73;;;2.50;;
52744;SDS011;38637;49.984;20.426;2023-04-25T03:20:55;6.30;;;2.83;;
52744;SDS011;38637;49.984;20.426;2023-04-25T03:23:20;3.67;;;3.33;;
52744;SDS011;38637;49.984;20.426;2023-04-25T03:25:46;3.13;;;2.87;;
52744;SDS011;38637;49.984;20.426;2023-04-25T03:28:11;3.27;;;2.97;;
52744;SDS011;38637;49.984;20.426;2023-04-25T03:30:37;4.47;;;4.07;;
52744;SDS011;38637;49.984;20.426;2023-04-25T03:33:02;3.53;;;3.00;;
52744;SDS011;38637;49.984;20.426;2023-04-25T03:35:27;4.67;;;3.60;;
52744;SDS011;38637;49.984;20.426;2023-04-25T03:37:53;5.47;;;3.47;;
52744;SDS011;38637;49.984;20.426;2023-04-25T03:40:18;3.80;;;3.50;;
52744;SDS011;38637;49.984;20.426;2023-04-25T03:42:43;4.80;;;4.23;;
52744;SDS011;38637;49.984;20.426;2023-04-25T03:45:09;4.97;;;4.53;;
52744;SDS011;38637;49.984;20.426;2023-04-25T03:47:34;4.27;;;3.90;;
52744;SDS011;38637;49.984;20.426;2023-04-25T03:49:59;5.20;;;4.67;;
52744;SDS011;38637;49.984;20.426;2023-04-25T03:52:26;5.05;;;4.60;;
52744;SDS011;38637;49.984;20.426;2023-04-25T03:54:51;5.37;;;4.73;;
52744;SDS011;38637;49.984;20.426;2023-04-25T03:57:17;6.53;;;4.50;;
52744;SDS011;38637;49.984;20.426;2023-04-25T03:59:42;6.80;;;4.70;;
52744;SDS011;38637;49.984;20.426;2023-04-25T04:02:07;5.33;;;4.37;;
52744;SDS011;38637;49.984;20.426;2023-04-25T04:04:33;4.43;;;4.03;;
52744;SDS011;38637;49.984;20.426;2023-04-25T04:06:58;4.40;;;4.10;;
52744;SDS011;38637;49.984;20.426;2023-04-25T04:09:23;5.23;;;4.73;;
52744;SDS011;38637;49.984;20.426;2023-04-25T04:11:49;8.60;;;4.93;;
52744;SDS011;38637;49.984;20.426;2023-04-25T04:14:14;6.47;;;4.90;;
52744;SDS011;38637;49.984;20.426;2023-04-25T04:16:40;7.50;;;5.50;;
52744;SDS011;38637;49.984;20.426;2023-04-25T04:19:05;10.20;;;6.90;;
52744;SDS011;38637;49.984;20.426;2023-04-25T04:21:30;6.57;;;5.97;;
52744;SDS011;38637;49.984;20.426;2023-04-25T04:23:56;8.73;;;6.28;;
52744;SDS011;38637;49.984;20.426;2023-04-25T04:26:22;6.67;;;6.07;;
52744;SDS011;38637;49.984;20.426;2023-04-25T04:28:48;6.37;;;5.77;;
52744;SDS011;38637;49.984;20.426;2023-04-25T04:31:19;6.57;;;5.95;;
52744;SDS011;38637;49.984;20.426;2023-04-25T04:33:47;8.27;;;7.45;;
52744;SDS011;38637;49.984;20.426;2023-04-25T04:36:12;5.83;;;5.23;;
52744;SDS011;38637;49.984;20.426;2023-04-25T04:38:38;7.93;;;5.10;;
52744;SDS011;38637;49.984;20.426;2023-04-25T04:41:04;5.70;;;4.50;;
52744;SDS011;38637;49.984;20.426;2023-04-25T04:43:29;5.40;;;4.67;;
52744;SDS011;38637;49.984;20.426;2023-04-25T04:45:55;8.07;;;6.00;;
52744;SDS011;38637;49.984;20.426;2023-04-25T04:48:23;6.07;;;5.00;;
52744;SDS011;38637;49.984;20.426;2023-04-25T04:50:49;7.53;;;6.07;;
52744;SDS011;38637;49.984;20.426;2023-04-25T04:53:14;5.47;;;4.97;;
52744;SDS011;38637;49.984;20.426;2023-04-25T04:55:40;7.83;;;6.30;;
52744;SDS011;38637;49.984;20.426;2023-04-25T04:58:06;6.97;;;6.07;;
52744;SDS011;38637;49.984;20.426;2023-04-25T05:00:32;7.55;;;6.85;;
52744;SDS011;38637;49.984;20.426;2023-04-25T05:02:58;9.45;;;7.43;;
52744;SDS011;38637;49.984;20.426;2023-04-25T05:05:23;10.37;;;9.27;;
52744;SDS011;38637;49.984;20.426;2023-04-25T05:07:49;11.90;;;9.60;;
52744;SDS011;38637;49.984;20.426;2023-04-25T05:10:14;10.57;;;9.10;;
52744;SDS011;38637;49.984;20.426;2023-04-25T05:12:40;10.83;;;7.97;;
52744;SDS011;38637;49.984;20.426;2023-04-25T05:15:05;9.40;;;7.20;;
52744;SDS011;38637;49.984;20.426;2023-04-25T05:17:31;7.57;;;6.93;;
52744;SDS011;38637;49.984;20.426;2023-04-25T05:19:57;8.32;;;7.53;;
52744;SDS011;38637;49.984;20.426;2023-04-25T05:22:23;6.40;;;5.80;;
52744;SDS011;38637;49.984;20.426;2023-04-25T05:24:48;7.67;;;6.80;;
52744;SDS011;38637;49.984;20.426;2023-04-25T05:27:16;9.53;;;6.37;;
52744;SDS011;38637;49.984;20.426;2023-04-25T05:29:41;6.82;;;6.22;;
52744;SDS011;38637;49.984;20.426;2023-04-25T05:32:07;6.10;;;5.30;;
52744;SDS011;38637;49.984;20.426;2023-04-25T05:34:33;6.28;;;5.53;;
52744;SDS011;38637;49.984;20.426;2023-04-25T05:36:58;6.70;;;6.10;;
52744;SDS011;38637;49.984;20.426;2023-04-25T05:39:23;6.10;;;5.57;;
52744;SDS011;38637;49.984;20.426;2023-04-25T05:41:49;6.40;;;5.80;;
52744;SDS011;38637;49.984;20.426;2023-04-25T05:44:14;6.63;;;6.13;;
52744;SDS011;38637;49.984;20.426;2023-04-25T05:46:40;5.93;;;5.32;;
52744;SDS011;38637;49.984;20.426;2023-04-25T05:49:06;7.80;;;5.87;;
52744;SDS011;38637;49.984;20.426;2023-04-25T05:51:31;7.83;;;5.97;;
52744;SDS011;38637;49.984;20.426;2023-04-25T05:53:57;7.43;;;6.40;;
52744;SDS011;38637;49.984;20.426;2023-04-25T05:56:22;7.93;;;7.13;;
52744;SDS011;38637;49.984;20.426;2023-04-25T05:58:48;9.87;;;8.43;;
52744;SDS011;38637;49.984;20.426;2023-04-25T06:01:13;10.33;;;8.63;;
52744;SDS011;38637;49.984;20.426;2023-04-25T06:03:39;10.33;;;9.33;;
52744;SDS011;38637;49.984;20.426;2023-04-25T06:06:07;10.73;;;9.63;;
52744;SDS011;38637;49.984;20.426;2023-04-25T06:08:33;11.30;;;10.07;;
52744;SDS011;38637;49.984;20.426;2023-04-25T06:10:58;11.13;;;10.23;;
52744;SDS011;38637;49.984;20.426;2023-04-25T06:13:23;13.23;;;9.83;;
52744;SDS011;38637;49.984;20.426;2023-04-25T06:15:49;10.37;;;9.30;;
52744;SDS011;38637;49.984;20.426;2023-04-25T06:18:14;12.33;;;11.00;;
52744;SDS011;38637;49.984;20.426;2023-04-25T06:20:39;10.97;;;9.87;;
52744;SDS011;38637;49.984;20.426;2023-04-25T06:23:05;11.90;;;10.00;;
52744;SDS011;38637;49.984;20.426;2023-04-25T06:25:30;12.10;;;9.50;;
52744;SDS011;38637;49.984;20.426;2023-04-25T06:27:56;9.23;;;8.33;;
52744;SDS011;38637;49.984;20.426;2023-04-25T06:30:21;11.17;;;7.23;;
52744;SDS011;38637;49.984;20.426;2023-04-25T06:32:50;7.97;;;6.82;;
52744;SDS011;38637;49.984;20.426;2023-04-25T06:35:15;11.33;;;6.67;;
52744;SDS011;38637;49.984;20.426;2023-04-25T06:37:41;8.00;;;6.63;;
52744;SDS011;38637;49.984;20.426;2023-04-25T06:40:06;6.60;;;5.40;;
52744;SDS011;38637;49.984;20.426;2023-04-25T06:42:32;7.32;;;6.05;;
52744;SDS011;38637;49.984;20.426;2023-04-25T06:44:57;8.57;;;6.53;;
52744;SDS011;38637;49.984;20.426;2023-04-25T06:47:23;8.47;;;5.17;;
52744;SDS011;38637;49.984;20.426;2023-04-25T06:49:48;6.27;;;5.23;;
52744;SDS011;38637;49.984;20.426;2023-04-25T06:52:13;11.17;;;5.00;;
52744;SDS011;38637;49.984;20.426;2023-04-25T06:54:39;5.27;;;4.73;;
52744;SDS011;38637;49.984;20.426;2023-04-25T06:57:04;7.97;;;5.30;;
52744;SDS011;38637;49.984;20.426;2023-04-25T06:59:30;6.40;;;4.80;;
52744;SDS011;38637;49.984;20.426;2023-04-25T07:01:55;5.87;;;5.27;;
52744;SDS011;38637;49.984;20.426;2023-04-25T07:04:20;5.60;;;4.30;;
52744;SDS011;38637;49.984;20.426;2023-04-25T07:06:46;5.50;;;4.93;;
52744;SDS011;38637;49.984;20.426;2023-04-25T07:11:38;9.27;;;5.40;;
52744;SDS011;38637;49.984;20.426;2023-04-25T07:14:03;8.50;;;4.93;;
52744;SDS011;38637;49.984;20.426;2023-04-25T07:16:29;6.87;;;4.30;;
52744;SDS011;38637;49.984;20.426;2023-04-25T07:18:54;7.17;;;4.27;;
52744;SDS011;38637;49.984;20.426;2023-04-25T07:21:20;6.13;;;3.80;;
52744;SDS011;38637;49.984;20.426;2023-04-25T07:23:45;3.90;;;3.50;;
52744;SDS011;38637;49.984;20.426;2023-04-25T07:26:11;5.53;;;3.80;;
52744;SDS011;38637;49.984;20.426;2023-04-25T07:28:37;5.03;;;2.90;;
52744;SDS011;38637;49.984;20.426;2023-04-25T07:31:02;4.47;;;2.93;;
52744;SDS011;38637;49.984;20.426;2023-04-25T07:33:27;3.27;;;3.03;;
52744;SDS011;38637;49.984;20.426;2023-04-25T07:35:53;12.37;;;3.10;;
52744;SDS011;38637;49.984;20.426;2023-04-25T07:38:20;2.92;;;2.22;;
52744;SDS011;38637;49.984;20.426;2023-04-25T07:40:46;2.27;;;1.90;;
52744;SDS011;38637;49.984;20.426;2023-04-25T07:43:12;3.40;;;1.48;;
52744;SDS011;38637;49.984;20.426;2023-04-25T07:45:41;3.45;;;1.65;;
52744;SDS011;38637;49.984;20.426;2023-04-25T07:48:07;2.72;;;1.50;;
52744;SDS011;38637;49.984;20.426;2023-04-25T07:50:32;4.37;;;1.60;;
52744;SDS011;38637;49.984;20.426;2023-04-25T07:52:58;1.80;;;1.30;;
52744;SDS011;38637;49.984;20.426;2023-04-25T07:55:23;2.23;;;1.30;;
52744;SDS011;38637;49.984;20.426;2023-04-25T07:57:48;1.60;;;1.10;;
52744;SDS011;38637;49.984;20.426;2023-04-25T08:00:14;3.83;;;1.10;;
52744;SDS011;38637;49.984;20.426;2023-04-25T08:02:40;1.70;;;1.00;;
52744;SDS011;38637;49.984;20.426;2023-04-25T08:05:05;1.10;;;1.00;;
52744;SDS011;38637;49.984;20.426;2023-04-25T08:07:33;1.80;;;0.88;;
52744;SDS011;38637;49.984;20.426;2023-04-25T08:09:58;1.63;;;1.10;;
52744;SDS011;38637;49.984;20.426;2023-04-25T08:12:23;1.73;;;1.00;;
52744;SDS011;38637;49.984;20.426;2023-04-25T08:14:49;1.17;;;1.08;;
52744;SDS011;38637;49.984;20.426;2023-04-25T08:17:15;2.63;;;0.90;;
52744;SDS011;38637;49.984;20.426;2023-04-25T08:19:40;1.63;;;1.30;;
52744;SDS011;38637;49.984;20.426;2023-04-25T08:22:06;1.90;;;1.20;;
52744;SDS011;38637;49.984;20.426;2023-04-25T08:24:31;1.47;;;1.37;;
52744;SDS011;38637;49.984;20.426;2023-04-25T08:26:57;3.40;;;1.60;;
52744;SDS011;38637;49.984;20.426;2023-04-25T08:31:50;1.67;;;1.35;;
52744;SDS011;38637;49.984;20.426;2023-04-25T08:34:17;2.22;;;1.50;;
52744;SDS011;38637;49.984;20.426;2023-04-25T08:36:43;1.73;;;1.63;;
52744;SDS011;38637;49.984;20.426;2023-04-25T08:39:08;1.90;;;1.70;;
52744;SDS011;38637;49.984;20.426;2023-04-25T08:41:34;2.00;;;1.70;;
52744;SDS011;38637;49.984;20.426;2023-04-25T08:44:02;2.80;;;1.70;;
52744;SDS011;38637;49.984;20.426;2023-04-25T08:46:28;2.63;;;1.40;;
52744;SDS011;38637;49.984;20.426;2023-04-25T08:48:56;3.65;;;1.77;;
52744;SDS011;38637;49.984;20.426;2023-04-25T08:51:26;1.40;;;1.30;;
52744;SDS011;38637;49.984;20.426;2023-04-25T08:53:53;3.67;;;1.95;;
52744;SDS011;38637;49.984;20.426;2023-04-25T08:56:18;1.75;;;1.63;;
52744;SDS011;38637;49.984;20.426;2023-04-25T08:58:49;2.30;;;1.70;;
52744;SDS011;38637;49.984;20.426;2023-04-25T09:01:15;3.08;;;1.92;;
52744;SDS011;38637;49.984;20.426;2023-04-25T09:03:41;6.13;;;1.75;;
52744;SDS011;38637;49.984;20.426;2023-04-25T09:06:07;2.20;;;1.50;;
52744;SDS011;38637;49.984;20.426;2023-04-25T09:08:36;3.78;;;1.70;;
52744;SDS011;38637;49.984;20.426;2023-04-25T09:13:28;1.92;;;1.60;;
52744;SDS011;38637;49.984;20.426;2023-04-25T09:15:55;2.28;;;1.60;;
52744;SDS011;38637;49.984;20.426;2023-04-25T09:18:30;3.30;;;2.13;;
52744;SDS011;38637;49.984;20.426;2023-04-25T09:21:04;1.88;;;1.70;;
52744;SDS011;38637;49.984;20.426;2023-04-25T09:23:31;2.35;;;1.70;;
52744;SDS011;38637;49.984;20.426;2023-04-25T09:26:06;3.45;;;1.58;;
52744;SDS011;38637;49.984;20.426;2023-04-25T09:28:33;2.85;;;1.67;;
52744;SDS011;38637;49.984;20.426;2023-04-25T09:31:00;4.38;;;2.15;;
52744;SDS011;38637;49.984;20.426;2023-04-25T09:33:29;4.13;;;1.60;;
52744;SDS011;38637;49.984;20.426;2023-04-25T09:36:07;1.60;;;1.40;;
52744;SDS011;38637;49.984;20.426;2023-04-25T09:38:43;1.75;;;1.30;;
52744;SDS011;38637;49.984;20.426;2023-04-25T09:41:10;1.30;;;1.17;;
52744;SDS011;38637;49.984;20.426;2023-04-25T09:43:36;1.98;;;1.30;;
52744;SDS011;38637;49.984;20.426;2023-04-25T09:46:02;3.30;;;1.10;;
52744;SDS011;38637;49.984;20.426;2023-04-25T09:48:32;2.63;;;1.50;;
52744;SDS011;38637;49.984;20.426;2023-04-25T09:51:10;1.90;;;1.40;;
52744;SDS011;38637;49.984;20.426;2023-04-25T09:53:39;1.23;;;1.10;;
52744;SDS011;38637;49.984;20.426;2023-04-25T09:56:07;3.70;;;1.45;;
52744;SDS011;38637;49.984;20.426;2023-04-25T09:58:34;1.48;;;1.38;;
52744;SDS011;38637;49.984;20.426;2023-04-25T10:03:29;3.13;;;1.52;;
52744;SDS011;38637;49.984;20.426;2023-04-25T10:05:57;2.38;;;1.50;;
52744;SDS011;38637;49.984;20.426;2023-04-25T10:08:24;2.22;;;1.73;;
52744;SDS011;38637;49.984;20.426;2023-04-25T10:10:53;11.20;;;1.92;;
52744;SDS011;38637;49.984;20.426;2023-04-25T10:13:18;2.27;;;1.80;;
52744;SDS011;38637;49.984;20.426;2023-04-25T10:15:44;4.85;;;2.33;;
52744;SDS011;38637;49.984;20.426;2023-04-25T10:18:11;2.22;;;2.08;;
52744;SDS011;38637;49.984;20.426;2023-04-25T10:20:37;3.03;;;2.00;;
52744;SDS011;38637;49.984;20.426;2023-04-25T10:23:11;4.03;;;1.80;;
52744;SDS011;38637;49.984;20.426;2023-04-25T10:25:40;2.00;;;1.80;;
52744;SDS011;38637;49.984;20.426;2023-04-25T10:28:06;2.78;;;2.58;;
52744;SDS011;38637;49.984;20.426;2023-04-25T10:30:31;2.67;;;2.47;;
52744;SDS011;38637;49.984;20.426;2023-04-25T10:32:58;3.80;;;2.17;;
52744;SDS011;38637;49.984;20.426;2023-04-25T10:35:25;2.67;;;2.33;;
52744;SDS011;38637;49.984;20.426;2023-04-25T10:38:10;2.33;;;2.13;;
52744;SDS011;38637;49.984;20.426;2023-04-25T10:40:38;5.88;;;2.13;;
52744;SDS011;38637;49.984;20.426;2023-04-25T10:51:17;2.40;;;2.20;;
52744;SDS011;38637;49.984;20.426;2023-04-25T10:56:29;2.22;;;1.80;;
52744;SDS011;38637;49.984;20.426;2023-04-25T10:59:11;2.28;;;2.08;;
52744;SDS011;38637;49.984;20.426;2023-04-25T11:04:05;1.90;;;1.80;;
52744;SDS011;38637;49.984;20.426;2023-04-25T11:06:36;2.23;;;2.03;;
52744;SDS011;38637;49.984;20.426;2023-04-25T11:09:20;1.77;;;1.63;;
52744;SDS011;38637;49.984;20.426;2023-04-25T11:11:58;1.60;;;1.50;;
52744;SDS011;38637;49.984;20.426;2023-04-25T11:14:25;1.60;;;1.30;;
52744;SDS011;38637;49.984;20.426;2023-04-25T11:16:55;1.42;;;1.33;;
52744;SDS011;38637;49.984;20.426;2023-04-25T11:19:22;3.67;;;1.30;;
52744;SDS011;38637;49.984;20.426;2023-04-25T11:21:48;1.48;;;1.20;;
52744;SDS011;38637;49.984;20.426;2023-04-25T11:24:13;7.43;;;1.80;;
52744;SDS011;38637;49.984;20.426;2023-04-25T11:26:41;2.07;;;1.10;;
52744;SDS011;38637;49.984;20.426;2023-04-25T11:29:07;1.63;;;1.40;;
52744;SDS011;38637;49.984;20.426;2023-04-25T11:31:32;1.73;;;1.27;;
52744;SDS011;38637;49.984;20.426;2023-04-25T11:33:58;2.43;;;1.50;;
52744;SDS011;38637;49.984;20.426;2023-04-25T11:36:24;2.35;;;1.48;;
52744;SDS011;38637;49.984;20.426;2023-04-25T11:38:51;1.45;;;1.30;;
52744;SDS011;38637;49.984;20.426;2023-04-25T11:41:17;1.50;;;1.17;;
52744;SDS011;38637;49.984;20.426;2023-04-25T11:43:43;1.52;;;0.90;;
52744;SDS011;38637;49.984;20.426;2023-04-25T11:46:09;3.90;;;1.10;;
52744;SDS011;38637;49.984;20.426;2023-04-25T11:48:40;1.43;;;1.33;;
52744;SDS011;38637;49.984;20.426;2023-04-25T11:51:07;1.30;;;1.20;;
52744;SDS011;38637;49.984;20.426;2023-04-25T11:53:32;1.07;;;1.03;;
52744;SDS011;38637;49.984;20.426;2023-04-25T11:55:58;2.57;;;1.00;;
52744;SDS011;38637;49.984;20.426;2023-04-25T11:58:23;1.30;;;1.20;;
52744;SDS011;38637;49.984;20.426;2023-04-25T12:00:50;1.70;;;1.10;;
52744;SDS011;38637;49.984;20.426;2023-04-25T12:03:15;3.17;;;1.20;;
52744;SDS011;38637;49.984;20.426;2023-04-25T12:05:42;2.17;;;1.60;;
52744;SDS011;38637;49.984;20.426;2023-04-25T12:08:10;1.30;;;1.10;;
52744;SDS011;38637;49.984;20.426;2023-04-25T12:10:40;2.30;;;1.63;;
52744;SDS011;38637;49.984;20.426;2023-04-25T12:13:24;2.03;;;1.80;;
52744;SDS011;38637;49.984;20.426;2023-04-25T12:15:50;3.53;;;1.60;;
52744;SDS011;38637;49.984;20.426;2023-04-25T12:18:18;2.13;;;1.87;;
52744;SDS011;38637;49.984;20.426;2023-04-25T12:20:45;2.15;;;1.70;;
52744;SDS011;38637;49.984;20.426;2023-04-25T12:23:11;1.83;;;1.73;;
52744;SDS011;38637;49.984;20.426;2023-04-25T12:25:38;3.50;;;1.85;;
52744;SDS011;38637;49.984;20.426;2023-04-25T12:28:17;1.70;;;1.60;;
52744;SDS011;38637;49.984;20.426;2023-04-25T12:33:23;1.80;;;1.55;;
52744;SDS011;38637;49.984;20.426;2023-04-25T12:38:21;2.90;;;1.90;;
52744;SDS011;38637;49.984;20.426;2023-04-25T12:40:57;3.33;;;2.38;;
52744;SDS011;38637;49.984;20.426;2023-04-25T12:43:23;3.50;;;1.70;;
52744;SDS011;38637;49.984;20.426;2023-04-25T12:45:49;1.83;;;1.73;;
52744;SDS011;38637;49.984;20.426;2023-04-25T12:48:16;1.73;;;1.58;;
52744;SDS011;38637;49.984;20.426;2023-04-25T12:50:42;2.30;;;1.87;;
52744;SDS011;38637;49.984;20.426;2023-04-25T12:53:08;2.53;;;2.33;;
52744;SDS011;38637;49.984;20.426;2023-04-25T12:55:34;4.83;;;1.83;;
52744;SDS011;38637;49.984;20.426;2023-04-25T12:57:59;2.30;;;2.10;;
52744;SDS011;38637;49.984;20.426;2023-04-25T13:00:24;3.03;;;2.17;;
52744;SDS011;38637;49.984;20.426;2023-04-25T13:02:51;2.58;;;2.33;;
52744;SDS011;38637;49.984;20.426;2023-04-25T13:05:16;2.20;;;2.00;;
52744;SDS011;38637;49.984;20.426;2023-04-25T13:07:42;5.13;;;2.43;;
52744;SDS011;38637;49.984;20.426;2023-04-25T13:10:07;2.20;;;2.00;;
52744;SDS011;38637;49.984;20.426;2023-04-25T13:12:33;2.50;;;2.13;;
52744;SDS011;38637;49.984;20.426;2023-04-25T13:14:58;4.97;;;2.63;;
52744;SDS011;38637;49.984;20.426;2023-04-25T13:17:23;2.80;;;2.60;;
52744;SDS011;38637;49.984;20.426;2023-04-25T13:19:49;3.67;;;2.80;;
52744;SDS011;38637;49.984;20.426;2023-04-25T13:22:14;3.50;;;2.87;;
52744;SDS011;38637;49.984;20.426;2023-04-25T13:24:41;4.97;;;3.47;;
52744;SDS011;38637;49.984;20.426;2023-04-25T13:27:07;6.60;;;4.03;;
52744;SDS011;38637;49.984;20.426;2023-04-25T13:29:32;4.13;;;3.73;;
52744;SDS011;38637;49.984;20.426;2023-04-25T13:32:00;4.50;;;3.83;;
52744;SDS011;38637;49.984;20.426;2023-04-25T13:34:26;4.57;;;3.23;;
52744;SDS011;38637;49.984;20.426;2023-04-25T13:36:51;5.07;;;4.50;;
52744;SDS011;38637;49.984;20.426;2023-04-25T13:39:17;5.40;;;4.67;;
52744;SDS011;38637;49.984;20.426;2023-04-25T13:41:42;5.33;;;3.53;;
52744;SDS011;38637;49.984;20.426;2023-04-25T13:44:07;5.43;;;4.33;;
52744;SDS011;38637;49.984;20.426;2023-04-25T13:46:33;3.93;;;3.50;;
52744;SDS011;38637;49.984;20.426;2023-04-25T13:48:58;4.27;;;3.87;;
52744;SDS011;38637;49.984;20.426;2023-04-25T13:51:24;6.17;;;4.47;;
52744;SDS011;38637;49.984;20.426;2023-04-25T13:53:49;4.50;;;3.67;;
52744;SDS011;38637;49.984;20.426;2023-04-25T13:56:14;4.97;;;4.50;;
52744;SDS011;38637;49.984;20.426;2023-04-25T13:58:40;4.30;;;3.90;;
52744;SDS011;38637;49.984;20.426;2023-04-25T14:01:05;4.23;;;3.90;;
52744;SDS011;38637;49.984;20.426;2023-04-25T14:03:31;4.50;;;4.20;;
52744;SDS011;38637;49.984;20.426;2023-04-25T14:05:56;5.77;;;5.20;;
52744;SDS011;38637;49.984;20.426;2023-04-25T14:08:21;4.60;;;4.13;;
52744;SDS011;38637;49.984;20.426;2023-04-25T14:10:47;4.70;;;4.00;;
52744;SDS011;38637;49.984;20.426;2023-04-25T14:13:12;10.07;;;4.97;;
52744;SDS011;38637;49.984;20.426;2023-04-25T14:15:37;4.70;;;4.30;;
52744;SDS011;38637;49.984;20.426;2023-04-25T14:18:03;4.43;;;4.03;;
52744;SDS011;38637;49.984;20.426;2023-04-25T14:20:28;4.10;;;3.60;;
52744;SDS011;38637;49.984;20.426;2023-04-25T14:22:54;2.93;;;2.73;;
52744;SDS011;38637;49.984;20.426;2023-04-25T14:25:21;2.42;;;2.10;;
52744;SDS011;38637;49.984;20.426;2023-04-25T14:27:47;2.90;;;2.60;;
52744;SDS011;38637;49.984;20.426;2023-04-25T14:30:15;2.92;;;2.63;;
52744;SDS011;38637;49.984;20.426;2023-04-25T14:32:44;3.80;;;2.33;;
52744;SDS011;38637;49.984;20.426;2023-04-25T14:35:10;3.15;;;2.55;;
52744;SDS011;38637;49.984;20.426;2023-04-25T14:37:35;3.20;;;2.20;;
52744;SDS011;38637;49.984;20.426;2023-04-25T14:40:01;2.40;;;2.20;;
52744;SDS011;38637;49.984;20.426;2023-04-25T14:42:26;2.93;;;2.40;;
52744;SDS011;38637;49.984;20.426;2023-04-25T14:44:52;6.20;;;2.50;;
52744;SDS011;38637;49.984;20.426;2023-04-25T14:47:17;2.23;;;2.03;;
52744;SDS011;38637;49.984;20.426;2023-04-25T14:49:43;2.30;;;2.10;;
52744;SDS011;38637;49.984;20.426;2023-04-25T14:52:08;3.60;;;2.50;;
52744;SDS011;38637;49.984;20.426;2023-04-25T14:54:34;3.30;;;2.27;;
52744;SDS011;38637;49.984;20.426;2023-04-25T14:56:59;3.20;;;2.40;;
52744;SDS011;38637;49.984;20.426;2023-04-25T14:59:25;3.10;;;2.28;;